sensor_id;sensor_type;location;lat;lon;timestamp;temperature;humidity
9544;DHT22;30418;51.45933468;7.33152330;2024-03-23T00:54:34;12.10;62.90
9544;DHT22;30418;51.45933468;7.33152330;2024-03-23T00:57:00;12.10;63.00
9544;DHT22;30418;51.45933468;7.33152330;2024-03-23T00:59:28;12.10;63.00
9544;DHT22;30418;51.45933468;7.33152330;2024-03-23T01:01:54;12.00;62.90
9544;DHT22;30418;51.45933468;7.33152330;2024-03-23T01:04:22;12.00;63.00
9544;DHT22;30418;51.45933468;7.33152330;2024-03-23T01:06:49;12.00;63.10
9544;DHT22;30418;51.45933468;7.33152330;2024-03-23T01:09:17;12.00;63.10
9544;DHT22;30418;51.45933468;7.33152330;2024-03-23T01:11:45;12.00;63.20
9544;DHT22;30418;51.45933468;7.33152330;2024-03-23T01:14:16;12.00;63.40
9544;DHT22;30418;51.45933468;7.33152330;2024-03-23T01:16:43;12.00;63.20
9544;DHT22;30418;51.45933468;7.33152330;2024-03-23T01:19:11;12.00;63.10
9544;DHT22;30418;51.45933468;7.33152330;2024-03-23T01:21:37;12.00;63.10
9544;DHT22;30418;51.45933468;7.33152330;2024-03-23T01:24:05;12.00;63.20
9544;DHT22;30418;51.45933468;7.33152330;2024-03-23T01:26:32;12.00;63.20
9544;DHT22;30418;51.45933468;7.33152330;2024-03-23T01:29:01;12.00;63.20
9544;DHT22;30418;51.45933468;7.33152330;2024-03-23T01:31:28;12.00;63.30
9544;DHT22;30418;51.45933468;7.33152330;2024-03-23T01:33:56;12.00;63.20
9544;DHT22;30418;51.45933468;7.33152330;2024-03-23T01:36:22;12.00;63.30
9544;DHT22;30418;51.45933468;7.33152330;2024-03-23T01:38:50;12.00;63.30
9544;DHT22;30418;51.45933468;7.33152330;2024-03-23T01:41:18;12.00;63.30
9544;DHT22;30418;51.45933468;7.33152330;2024-03-23T01:43:46;12.00;63.30
9544;DHT22;30418;51.45933468;7.33152330;2024-03-23T01:46:15;12.00;63.30
9544;DHT22;30418;51.45933468;7.33152330;2024-03-23T01:48:43;12.00;63.10
9544;DHT22;30418;51.45933468;7.33152330;2024-03-23T01:51:10;12.00;62.90
9544;DHT22;30418;51.45933468;7.33152330;2024-03-23T01:53:37;12.00;63.00
9544;DHT22;30418;51.45933468;7.33152330;2024-03-23T01:56:05;12.00;62.80
9544;DHT22;30418;51.45933468;7.33152330;2024-03-23T01:58:33;12.00;62.70
9544;DHT22;30418;51.45933468;7.33152330;2024-03-23T02:01:00;11.90;62.60
9544;DHT22;30418;51.45933468;7.33152330;2024-03-23T02:03:29;11.90;62.50
9544;DHT22;30418;51.45933468;7.33152330;2024-03-23T02:05:56;11.90;62.20
9544;DHT22;30418;51.45933468;7.33152330;2024-03-23T02:08:24;11.90;62.20
9544;DHT22;30418;51.45933468;7.33152330;2024-03-23T02:10:51;11.80;62.00
9544;DHT22;30418;51.45933468;7.33152330;2024-03-23T02:13:19;11.80;62.00
9544;DHT22;30418;51.45933468;7.33152330;2024-03-23T02:15:46;11.80;62.20
9544;DHT22;30418;51.45933468;7.33152330;2024-03-23T02:18:14;11.70;62.20
9544;DHT22;30418;51.45933468;7.33152330;2024-03-23T02:20:42;11.80;62.40
9544;DHT22;30418;51.45933468;7.33152330;2024-03-23T02:23:14;11.70;62.30
9544;DHT22;30418;51.45933468;7.33152330;2024-03-23T02:25:41;11.70;62.50
9544;DHT22;30418;51.45933468;7.33152330;2024-03-23T02:28:09;11.70;62.50
9544;DHT22;30418;51.45933468;7.33152330;2024-03-23T02:30:36;11.70;62.80
9544;DHT22;30418;51.45933468;7.33152330;2024-03-23T02:33:04;11.70;63.10
9544;DHT22;30418;51.45933468;7.33152330;2024-03-23T02:35:31;11.70;63.20
9544;DHT22;30418;51.45933468;7.33152330;2024-03-23T02:37:58;11.80;63.30
9544;DHT22;30418;51.45933468;7.33152330;2024-03-23T02:40:28;11.80;63.10
9544;DHT22;30418;51.45933468;7.33152330;2024-03-23T02:42:55;11.80;63.10
9544;DHT22;30418;51.45933468;7.33152330;2024-03-23T02:45:22;11.90;63.20
9544;DHT22;30418;51.45933468;7.33152330;2024-03-23T02:47:50;11.90;63.10
9544;DHT22;30418;51.45933468;7.33152330;2024-03-23T02:50:18;11.90;63.00
9544;DHT22;30418;51.45933468;7.33152330;2024-03-23T02:52:46;11.90;62.90
9544;DHT22;30418;51.45933468;7.33152330;2024-03-23T02:55:13;12.00;63.10
9544;DHT22;30418;51.45933468;7.33152330;2024-03-23T02:57:42;12.00;63.00
9544;DHT22;30418;51.45933468;7.33152330;2024-03-23T03:00:10;12.00;63.00
9544;DHT22;30418;51.45933468;7.33152330;2024-03-23T03:02:39;12.00;62.80
9544;DHT22;30418;51.45933468;7.33152330;2024-03-23T03:05:06;12.00;62.60
9544;DHT22;30418;51.45933468;7.33152330;2024-03-23T03:07:35;12.00;62.30
9544;DHT22;30418;51.45933468;7.33152330;2024-03-23T03:10:01;12.00;62.10
9544;DHT22;30418;51.45933468;7.33152330;2024-03-23T03:12:31;12.00;62.10
9544;DHT22;30418;51.45933468;7.33152330;2024-03-23T03:14:59;12.00;62.00
9544;DHT22;30418;51.45933468;7.33152330;2024-03-23T03:17:26;11.90;61.40
9544;DHT22;30418;51.45933468;7.33152330;2024-03-23T03:19:53;11.90;61.30
9544;DHT22;30418;51.45933468;7.33152330;2024-03-23T03:22:22;11.90;61.50
9544;DHT22;30418;51.45933468;7.33152330;2024-03-23T03:24:48;11.90;61.80
9544;DHT22;30418;51.45933468;7.33152330;2024-03-23T03:27:16;11.80;62.00
9544;DHT22;30418;51.45933468;7.33152330;2024-03-23T03:29:42;11.80;62.20
9544;DHT22;30418;51.45933468;7.33152330;2024-03-23T03:32:12;11.90;62.30
9544;DHT22;30418;51.45933468;7.33152330;2024-03-23T03:34:38;11.90;62.30
9544;DHT22;30418;51.45933468;7.33152330;2024-03-23T03:37:07;11.90;62.40
9544;DHT22;30418;51.45933468;7.33152330;2024-03-23T03:39:33;11.90;62.40
9544;DHT22;30418;51.45933468;7.33152330;2024-03-23T03:42:01;12.00;62.50
9544;DHT22;30418;51.45933468;7.33152330;2024-03-23T03:44:32;12.00;62.40
9544;DHT22;30418;51.45933468;7.33152330;2024-03-23T03:47:00;12.00;62.40
9544;DHT22;30418;51.45933468;7.33152330;2024-03-23T03:49:28;12.00;62.30
9544;DHT22;30418;51.45933468;7.33152330;2024-03-23T03:51:56;12.00;62.00
9544;DHT22;30418;51.45933468;7.33152330;2024-03-23T03:54:22;12.00;61.70
9544;DHT22;30418;51.45933468;7.33152330;2024-03-23T03:56:51;12.00;61.70
9544;DHT22;30418;51.45933468;7.33152330;2024-03-23T03:59:17;12.00;61.50
9544;DHT22;30418;51.45933468;7.33152330;2024-03-23T04:01:46;12.00;61.50
9544;DHT22;30418;51.45933468;7.33152330;2024-03-23T04:04:13;11.90;61.60
9544;DHT22;30418;51.45933468;7.33152330;2024-03-23T04:06:44;11.90;61.80
9544;DHT22;30418;51.45933468;7.33152330;2024-03-23T04:09:10;11.90;62.00
9544;DHT22;30418;51.45933468;7.33152330;2024-03-23T04:11:38;11.90;62.10
9544;DHT22;30418;51.45933468;7.33152330;2024-03-23T04:14:05;11.90;62.10
9544;DHT22;30418;51.45933468;7.33152330;2024-03-23T04:16:34;11.90;62.20
9544;DHT22;30418;51.45933468;7.33152330;2024-03-23T04:19:01;11.90;62.30
9544;DHT22;30418;51.45933468;7.33152330;2024-03-23T04:21:30;12.00;62.30
9544;DHT22;30418;51.45933468;7.33152330;2024-03-23T04:23:58;12.00;62.30
9544;DHT22;30418;51.45933468;7.33152330;2024-03-23T04:26:26;12.00;62.30
9544;DHT22;30418;51.45933468;7.33152330;2024-03-23T04:28:53;12.00;62.30
9544;DHT22;30418;51.45933468;7.33152330;2024-03-23T04:31:21;12.00;62.20
9544;DHT22;30418;51.45933468;7.33152330;2024-03-23T04:33:47;12.00;62.20
9544;DHT22;30418;51.45933468;7.33152330;2024-03-23T04:36:15;12.00;62.10
9544;DHT22;30418;51.45933468;7.33152330;2024-03-23T04:38:41;12.00;62.10
9544;DHT22;30418;51.45933468;7.33152330;2024-03-23T04:41:10;11.90;62.00
9544;DHT22;30418;51.45933468;7.33152330;2024-03-23T04:43:38;12.00;62.10
9544;DHT22;30418;51.45933468;7.33152330;2024-03-23T04:46:06;12.00;62.00
9544;DHT22;30418;51.45933468;7.33152330;2024-03-23T04:48:33;12.00;61.90
9544;DHT22;30418;51.45933468;7.33152330;2024-03-23T04:51:01;11.90;61.80
9544;DHT22;30418;51.45933468;7.33152330;2024-03-23T04:53:28;12.00;62.00
9544;DHT22;30418;51.45933468;7.33152330;2024-03-23T04:55:57;11.90;61.90
9544;DHT22;30418;51.45933468;7.33152330;2024-03-23T04:58:27;11.90;61.90
9544;DHT22;30418;51.45933468;7.33152330;2024-03-23T05:00:54;11.90;61.90
9544;DHT22;30418;51.45933468;7.33152330;2024-03-23T05:03:22;11.90;61.90
9544;DHT22;30418;51.45933468;7.33152330;2024-03-23T05:05:49;11.90;61.80
9544;DHT22;30418;51.45933468;7.33152330;2024-03-23T05:08:17;11.80;61.60
9544;DHT22;30418;51.45933468;7.33152330;2024-03-23T05:10:43;11.90;61.70
9544;DHT22;30418;51.45933468;7.33152330;2024-03-23T05:13:12;11.90;61.80
9544;DHT22;30418;51.45933468;7.33152330;2024-03-23T05:15:40;11.80;61.60
9544;DHT22;30418;51.45933468;7.33152330;2024-03-23T05:18:07;11.80;61.60
9544;DHT22;30418;51.45933468;7.33152330;2024-03-23T05:20:34;11.80;61.50
9544;DHT22;30418;51.45933468;7.33152330;2024-03-23T05:23:02;11.80;61.70
9544;DHT22;30418;51.45933468;7.33152330;2024-03-23T05:25:29;11.80;61.70
9544;DHT22;30418;51.45933468;7.33152330;2024-03-23T05:27:57;11.70;61.50
9544;DHT22;30418;51.45933468;7.33152330;2024-03-23T05:30:24;11.70;61.50
9544;DHT22;30418;51.45933468;7.33152330;2024-03-23T05:32:53;11.70;61.60
9544;DHT22;30418;51.45933468;7.33152330;2024-03-23T05:35:20;11.70;61.60
9544;DHT22;30418;51.45933468;7.33152330;2024-03-23T05:37:47;11.70;61.60
9544;DHT22;30418;51.45933468;7.33152330;2024-03-23T05:40:14;11.70;61.70
9544;DHT22;30418;51.45933468;7.33152330;2024-03-23T05:42:42;11.70;61.60
9544;DHT22;30418;51.45933468;7.33152330;2024-03-23T05:45:09;11.70;61.60
9544;DHT22;30418;51.45933468;7.33152330;2024-03-23T05:47:37;11.70;61.60
9544;DHT22;30418;51.45933468;7.33152330;2024-03-23T05:50:05;11.60;61.30
9544;DHT22;30418;51.45933468;7.33152330;2024-03-23T05:52:36;11.60;61.30
9544;DHT22;30418;51.45933468;7.33152330;2024-03-23T05:55:03;11.60;61.30
9544;DHT22;30418;51.45933468;7.33152330;2024-03-23T05:57:31;11.50;61.30
9544;DHT22;30418;51.45933468;7.33152330;2024-03-23T05:59:59;11.50;61.40
9544;DHT22;30418;51.45933468;7.33152330;2024-03-23T06:02:26;11.40;61.20
9544;DHT22;30418;51.45933468;7.33152330;2024-03-23T06:04:54;11.40;61.30
9544;DHT22;30418;51.45933468;7.33152330;2024-03-23T06:07:22;11.30;61.30
9544;DHT22;30418;51.45933468;7.33152330;2024-03-23T06:09:49;11.30;61.40
9544;DHT22;30418;51.45933468;7.33152330;2024-03-23T06:12:17;11.30;61.70
9544;DHT22;30418;51.45933468;7.33152330;2024-03-23T06:14:45;11.20;61.80
9544;DHT22;30418;51.45933468;7.33152330;2024-03-23T06:17:11;11.20;61.90
9544;DHT22;30418;51.45933468;7.33152330;2024-03-23T06:19:39;11.20;61.80
9544;DHT22;30418;51.45933468;7.33152330;2024-03-23T06:22:06;11.20;61.80
9544;DHT22;30418;51.45933468;7.33152330;2024-03-23T06:24:35;11.20;61.80
9544;DHT22;30418;51.45933468;7.33152330;2024-03-23T06:27:02;11.20;61.90
9544;DHT22;30418;51.45933468;7.33152330;2024-03-23T06:29:30;11.20;62.00
9544;DHT22;30418;51.45933468;7.33152330;2024-03-23T06:31:56;11.20;62.00
9544;DHT22;30418;51.45933468;7.33152330;2024-03-23T06:34:24;11.10;62.10
9544;DHT22;30418;51.45933468;7.33152330;2024-03-23T06:36:51;11.20;62.20
9544;DHT22;30418;51.45933468;7.33152330;2024-03-23T06:39:19;11.10;62.30
9544;DHT22;30418;51.45933468;7.33152330;2024-03-23T06:41:53;11.10;62.50
9544;DHT22;30418;51.45933468;7.33152330;2024-03-23T06:44:21;11.20;62.80
9544;DHT22;30418;51.45933468;7.33152330;2024-03-23T06:46:47;11.20;62.70
9544;DHT22;30418;51.45933468;7.33152330;2024-03-23T06:49:15;11.10;62.60
9544;DHT22;30418;51.45933468;7.33152330;2024-03-23T06:51:42;11.10;62.60
9544;DHT22;30418;51.45933468;7.33152330;2024-03-23T06:54:10;11.20;62.80
9544;DHT22;30418;51.45933468;7.33152330;2024-03-23T06:56:37;11.20;62.80
9544;DHT22;30418;51.45933468;7.33152330;2024-03-23T06:59:07;11.20;62.80
9544;DHT22;30418;51.45933468;7.33152330;2024-03-23T07:01:33;11.20;62.80
9544;DHT22;30418;51.45933468;7.33152330;2024-03-23T07:04:01;11.20;62.80
9544;DHT22;30418;51.45933468;7.33152330;2024-03-23T07:06:28;11.20;62.70
9544;DHT22;30418;51.45933468;7.33152330;2024-03-23T07:08:57;11.10;62.70
9544;DHT22;30418;51.45933468;7.33152330;2024-03-23T07:11:24;11.10;62.70
9544;DHT22;30418;51.45933468;7.33152330;2024-03-23T07:13:53;11.10;62.80
9544;DHT22;30418;51.45933468;7.33152330;2024-03-23T07:16:22;11.10;62.90
9544;DHT22;30418;51.45933468;7.33152330;2024-03-23T07:18:50;11.10;63.00
9544;DHT22;30418;51.45933468;7.33152330;2024-03-23T07:21:17;11.10;62.90
9544;DHT22;30418;51.45933468;7.33152330;2024-03-23T07:23:44;11.10;62.90
9544;DHT22;30418;51.45933468;7.33152330;2024-03-23T07:26:12;11.10;62.90
9544;DHT22;30418;51.45933468;7.33152330;2024-03-23T07:28:40;11.10;62.90
9544;DHT22;30418;51.45933468;7.33152330;2024-03-23T07:31:11;11.10;62.90
9544;DHT22;30418;51.45933468;7.33152330;2024-03-23T07:33:44;11.10;62.90
9544;DHT22;30418;51.45933468;7.33152330;2024-03-23T07:36:12;11.10;63.10
9544;DHT22;30418;51.45933468;7.33152330;2024-03-23T07:38:41;11.20;63.10
9544;DHT22;30418;51.45933468;7.33152330;2024-03-23T07:41:08;11.20;63.20
9544;DHT22;30418;51.45933468;7.33152330;2024-03-23T07:43:37;11.20;63.50
9544;DHT22;30418;51.45933468;7.33152330;2024-03-23T07:46:05;11.20;63.60
9544;DHT22;30418;51.45933468;7.33152330;2024-03-23T07:48:33;11.20;63.50
9544;DHT22;30418;51.45933468;7.33152330;2024-03-23T07:51:02;11.30;63.60
9544;DHT22;30418;51.45933468;7.33152330;2024-03-23T07:53:31;11.30;63.70
9544;DHT22;30418;51.45933468;7.33152330;2024-03-23T07:56:01;11.30;63.70
9544;DHT22;30418;51.45933468;7.33152330;2024-03-23T07:58:30;11.30;63.60
9544;DHT22;30418;51.45933468;7.33152330;2024-03-23T08:01:01;11.40;63.70
9544;DHT22;30418;51.45933468;7.33152330;2024-03-23T08:03:31;11.40;63.80
9544;DHT22;30418;51.45933468;7.33152330;2024-03-23T08:05:58;11.40;63.70
9544;DHT22;30418;51.45933468;7.33152330;2024-03-23T08:08:27;11.40;63.80
9544;DHT22;30418;51.45933468;7.33152330;2024-03-23T08:10:54;11.50;63.80
9544;DHT22;30418;51.45933468;7.33152330;2024-03-23T08:13:21;11.40;63.50
9544;DHT22;30418;51.45933468;7.33152330;2024-03-23T08:15:48;11.50;63.50
9544;DHT22;30418;51.45933468;7.33152330;2024-03-23T08:18:15;11.50;64.50
9544;DHT22;30418;51.45933468;7.33152330;2024-03-23T08:20:42;11.50;63.80
9544;DHT22;30418;51.45933468;7.33152330;2024-03-23T08:23:09;11.50;63.80
9544;DHT22;30418;51.45933468;7.33152330;2024-03-23T08:25:38;11.50;63.70
9544;DHT22;30418;51.45933468;7.33152330;2024-03-23T08:28:05;11.50;63.70
9544;DHT22;30418;51.45933468;7.33152330;2024-03-23T08:30:35;11.60;63.90
9544;DHT22;30418;51.45933468;7.33152330;2024-03-23T08:33:03;11.60;64.00
9544;DHT22;30418;51.45933468;7.33152330;2024-03-23T08:35:29;11.60;64.00
9544;DHT22;30418;51.45933468;7.33152330;2024-03-23T08:37:57;11.70;63.70
9544;DHT22;30418;51.45933468;7.33152330;2024-03-23T08:40:24;11.70;63.60
9544;DHT22;30418;51.45933468;7.33152330;2024-03-23T08:42:53;11.70;63.60
9544;DHT22;30418;51.45933468;7.33152330;2024-03-23T08:45:20;11.70;63.60
9544;DHT22;30418;51.45933468;7.33152330;2024-03-23T08:47:47;11.70;63.50
9544;DHT22;30418;51.45933468;7.33152330;2024-03-23T08:50:14;11.80;63.60
9544;DHT22;30418;51.45933468;7.33152330;2024-03-23T08:52:42;11.80;63.70
9544;DHT22;30418;51.45933468;7.33152330;2024-03-23T08:55:09;11.80;63.50
9544;DHT22;30418;51.45933468;7.33152330;2024-03-23T08:57:36;11.80;63.50
9544;DHT22;30418;51.45933468;7.33152330;2024-03-23T09:00:06;11.80;63.40
9544;DHT22;30418;51.45933468;7.33152330;2024-03-23T09:02:35;11.80;63.10
9544;DHT22;30418;51.45933468;7.33152330;2024-03-23T09:05:02;11.90;63.00
9544;DHT22;30418;51.45933468;7.33152330;2024-03-23T09:07:31;11.90;62.50
9544;DHT22;30418;51.45933468;7.33152330;2024-03-23T09:09:58;11.90;62.40
9544;DHT22;30418;51.45933468;7.33152330;2024-03-23T09:12:26;11.80;62.20
9544;DHT22;30418;51.45933468;7.33152330;2024-03-23T09:14:52;11.90;62.60
9544;DHT22;30418;51.45933468;7.33152330;2024-03-23T09:17:21;11.90;62.70
9544;DHT22;30418;51.45933468;7.33152330;2024-03-23T09:19:48;11.90;62.50
9544;DHT22;30418;51.45933468;7.33152330;2024-03-23T09:22:15;11.90;62.30
9544;DHT22;30418;51.45933468;7.33152330;2024-03-23T09:24:42;12.00;62.30
9544;DHT22;30418;51.45933468;7.33152330;2024-03-23T09:27:09;12.00;62.00
9544;DHT22;30418;51.45933468;7.33152330;2024-03-23T09:29:36;12.00;61.50
9544;DHT22;30418;51.45933468;7.33152330;2024-03-23T09:32:04;12.00;61.40
9544;DHT22;30418;51.45933468;7.33152330;2024-03-23T09:34:34;12.00;61.40
9544;DHT22;30418;51.45933468;7.33152330;2024-03-23T09:37:01;11.90;61.10
9544;DHT22;30418;51.45933468;7.33152330;2024-03-23T09:39:28;11.90;61.00
9544;DHT22;30418;51.45933468;7.33152330;2024-03-23T09:41:57;11.90;61.00
9544;DHT22;30418;51.45933468;7.33152330;2024-03-23T09:44:24;11.90;60.70
9544;DHT22;30418;51.45933468;7.33152330;2024-03-23T09:46:55;11.90;60.80
9544;DHT22;30418;51.45933468;7.33152330;2024-03-23T09:49:22;11.80;60.70
9544;DHT22;30418;51.45933468;7.33152330;2024-03-23T09:51:52;11.80;60.70
9544;DHT22;30418;51.45933468;7.33152330;2024-03-23T09:54:21;11.80;60.80
9544;DHT22;30418;51.45933468;7.33152330;2024-03-23T09:56:49;11.80;60.80
9544;DHT22;30418;51.45933468;7.33152330;2024-03-23T09:59:15;11.80;61.20
9544;DHT22;30418;51.45933468;7.33152330;2024-03-23T10:01:43;11.80;61.20
9544;DHT22;30418;51.45933468;7.33152330;2024-03-23T10:04:10;11.90;61.40
9544;DHT22;30418;51.45933468;7.33152330;2024-03-23T10:06:37;11.90;61.50
9544;DHT22;30418;51.45933468;7.33152330;2024-03-23T10:09:16;12.00;61.50
9544;DHT22;30418;51.45933468;7.33152330;2024-03-23T10:11:45;12.00;61.50
9544;DHT22;30418;51.45933468;7.33152330;2024-03-23T10:14:28;12.10;61.70
9544;DHT22;30418;51.45933468;7.33152330;2024-03-23T10:17:12;12.20;61.20
9544;DHT22;30418;51.45933468;7.33152330;2024-03-23T10:19:40;12.20;61.00
9544;DHT22;30418;51.45933468;7.33152330;2024-03-23T10:22:10;12.30;61.10
9544;DHT22;30418;51.45933468;7.33152330;2024-03-23T10:24:41;12.30;60.80
9544;DHT22;30418;51.45933468;7.33152330;2024-03-23T10:27:09;12.40;60.80
9544;DHT22;30418;51.45933468;7.33152330;2024-03-23T10:29:41;12.40;60.20
9544;DHT22;30418;51.45933468;7.33152330;2024-03-23T10:32:09;12.40;59.90
9544;DHT22;30418;51.45933468;7.33152330;2024-03-23T10:34:37;12.40;59.50
9544;DHT22;30418;51.45933468;7.33152330;2024-03-23T10:37:06;12.50;59.10
9544;DHT22;30418;51.45933468;7.33152330;2024-03-23T10:39:35;12.40;59.40
9544;DHT22;30418;51.45933468;7.33152330;2024-03-23T10:42:06;12.50;59.70
9544;DHT22;30418;51.45933468;7.33152330;2024-03-23T10:44:34;12.50;59.60
9544;DHT22;30418;51.45933468;7.33152330;2024-03-23T10:47:03;12.60;59.60
9544;DHT22;30418;51.45933468;7.33152330;2024-03-23T10:49:32;12.70;60.20
9544;DHT22;30418;51.45933468;7.33152330;2024-03-23T10:52:02;12.70;59.20
9544;DHT22;30418;51.45933468;7.33152330;2024-03-23T10:54:30;12.80;58.70
9544;DHT22;30418;51.45933468;7.33152330;2024-03-23T10:57:03;12.80;58.90
9544;DHT22;30418;51.45933468;7.33152330;2024-03-23T10:59:35;12.90;58.70
9544;DHT22;30418;51.45933468;7.33152330;2024-03-23T11:02:04;13.00;59.00
9544;DHT22;30418;51.45933468;7.33152330;2024-03-23T11:04:35;13.00;58.10
9544;DHT22;30418;51.45933468;7.33152330;2024-03-23T11:07:02;13.10;57.80
9544;DHT22;30418;51.45933468;7.33152330;2024-03-23T11:09:40;13.10;57.60
9544;DHT22;30418;51.45933468;7.33152330;2024-03-23T11:12:31;13.10;56.90
9544;DHT22;30418;51.45933468;7.33152330;2024-03-23T11:15:02;13.10;57.10
9544;DHT22;30418;51.45933468;7.33152330;2024-03-23T11:17:30;13.10;56.40
9544;DHT22;30418;51.45933468;7.33152330;2024-03-23T11:19:59;12.90;55.90
9544;DHT22;30418;51.45933468;7.33152330;2024-03-23T11:22:40;12.70;55.50
9544;DHT22;30418;51.45933468;7.33152330;2024-03-23T11:25:13;12.40;55.30
9544;DHT22;30418;51.45933468;7.33152330;2024-03-23T11:27:45;12.20;55.60
9544;DHT22;30418;51.45933468;7.33152330;2024-03-23T11:30:14;12.00;55.90
9544;DHT22;30418;51.45933468;7.33152330;2024-03-23T11:32:42;11.80;56.50
9544;DHT22;30418;51.45933468;7.33152330;2024-03-23T11:35:25;11.60;57.00
9544;DHT22;30418;51.45933468;7.33152330;2024-03-23T11:38:03;11.50;57.50
9544;DHT22;30418;51.45933468;7.33152330;2024-03-23T11:40:34;11.50;58.20
9544;DHT22;30418;51.45933468;7.33152330;2024-03-23T11:43:04;11.50;58.50
9544;DHT22;30418;51.45933468;7.33152330;2024-03-23T11:45:37;11.40;58.70
9544;DHT22;30418;51.45933468;7.33152330;2024-03-23T11:48:06;11.50;58.90
9544;DHT22;30418;51.45933468;7.33152330;2024-03-23T11:50:37;11.50;59.30
9544;DHT22;30418;51.45933468;7.33152330;2024-03-23T11:53:13;11.50;59.50
9544;DHT22;30418;51.45933468;7.33152330;2024-03-23T11:55:43;11.60;59.70
9544;DHT22;30418;51.45933468;7.33152330;2024-03-23T11:58:14;11.60;59.80
9544;DHT22;30418;51.45933468;7.33152330;2024-03-23T12:00:43;11.60;59.70
9544;DHT22;30418;51.45933468;7.33152330;2024-03-23T12:03:16;11.70;59.60
9544;DHT22;30418;51.45933468;7.33152330;2024-03-23T12:05:48;11.70;59.50
9544;DHT22;30418;51.45933468;7.33152330;2024-03-23T12:08:17;11.80;59.60
9544;DHT22;30418;51.45933468;7.33152330;2024-03-23T12:10:48;11.90;59.60
9544;DHT22;30418;51.45933468;7.33152330;2024-03-23T12:13:21;11.90;59.30
9544;DHT22;30418;51.45933468;7.33152330;2024-03-23T12:15:50;11.90;58.70
9544;DHT22;30418;51.45933468;7.33152330;2024-03-23T12:18:17;12.00;58.60
9544;DHT22;30418;51.45933468;7.33152330;2024-03-23T12:20:51;11.90;58.50
9544;DHT22;30418;51.45933468;7.33152330;2024-03-23T12:23:17;12.00;58.30
9544;DHT22;30418;51.45933468;7.33152330;2024-03-23T12:25:48;12.00;58.00
9544;DHT22;30418;51.45933468;7.33152330;2024-03-23T12:28:15;12.00;58.20
9544;DHT22;30418;51.45933468;7.33152330;2024-03-23T12:30:44;12.00;58.10
9544;DHT22;30418;51.45933468;7.33152330;2024-03-23T12:33:11;12.10;58.10
9544;DHT22;30418;51.45933468;7.33152330;2024-03-23T12:35:39;12.10;58.30
9544;DHT22;30418;51.45933468;7.33152330;2024-03-23T12:38:05;12.10;58.10
9544;DHT22;30418;51.45933468;7.33152330;2024-03-23T12:40:33;12.20;58.30
9544;DHT22;30418;51.45933468;7.33152330;2024-03-23T12:43:00;12.20;58.10
9544;DHT22;30418;51.45933468;7.33152330;2024-03-23T12:45:28;12.20;57.90
9544;DHT22;30418;51.45933468;7.33152330;2024-03-23T12:47:56;12.20;57.80
9544;DHT22;30418;51.45933468;7.33152330;2024-03-23T12:50:23;12.20;58.30
9544;DHT22;30418;51.45933468;7.33152330;2024-03-23T12:52:50;12.20;58.40
9544;DHT22;30418;51.45933468;7.33152330;2024-03-23T12:55:17;12.20;58.40
9544;DHT22;30418;51.45933468;7.33152330;2024-03-23T12:57:44;12.20;58.40
9544;DHT22;30418;51.45933468;7.33152330;2024-03-23T13:00:13;12.20;58.60
9544;DHT22;30418;51.45933468;7.33152330;2024-03-23T13:02:42;12.20;58.60
9544;DHT22;30418;51.45933468;7.33152330;2024-03-23T13:05:11;12.30;58.60
9544;DHT22;30418;51.45933468;7.33152330;2024-03-23T13:07:37;12.30;58.50
9544;DHT22;30418;51.45933468;7.33152330;2024-03-23T13:10:06;12.40;64.10
9544;DHT22;30418;51.45933468;7.33152330;2024-03-23T13:12:34;12.30;64.70
9544;DHT22;30418;51.45933468;7.33152330;2024-03-23T13:15:02;12.40;65.20
9544;DHT22;30418;51.45933468;7.33152330;2024-03-23T13:17:29;12.40;65.00
9544;DHT22;30418;51.45933468;7.33152330;2024-03-23T13:19:57;12.40;64.60
9544;DHT22;30418;51.45933468;7.33152330;2024-03-23T13:22:25;12.40;64.30
9544;DHT22;30418;51.45933468;7.33152330;2024-03-23T13:24:52;12.40;63.40
9544;DHT22;30418;51.45933468;7.33152330;2024-03-23T13:27:20;12.50;62.90
9544;DHT22;30418;51.45933468;7.33152330;2024-03-23T13:29:48;12.50;62.10
9544;DHT22;30418;51.45933468;7.33152330;2024-03-23T13:32:14;12.50;61.30
9544;DHT22;30418;51.45933468;7.33152330;2024-03-23T13:34:42;12.40;60.80
9544;DHT22;30418;51.45933468;7.33152330;2024-03-23T13:37:09;12.40;60.50
9544;DHT22;30418;51.45933468;7.33152330;2024-03-23T13:39:38;12.30;60.10
9544;DHT22;30418;51.45933468;7.33152330;2024-03-23T13:42:05;12.30;60.00
9544;DHT22;30418;51.45933468;7.33152330;2024-03-23T13:44:35;12.20;60.00
9544;DHT22;30418;51.45933468;7.33152330;2024-03-23T13:47:02;12.20;60.00
9544;DHT22;30418;51.45933468;7.33152330;2024-03-23T13:49:31;12.20;60.10
9544;DHT22;30418;51.45933468;7.33152330;2024-03-23T13:51:58;12.20;60.50
9544;DHT22;30418;51.45933468;7.33152330;2024-03-23T13:54:27;12.20;59.90
9544;DHT22;30418;51.45933468;7.33152330;2024-03-23T13:56:56;12.30;59.50
9544;DHT22;30418;51.45933468;7.33152330;2024-03-23T13:59:24;12.30;59.10
9544;DHT22;30418;51.45933468;7.33152330;2024-03-23T14:01:51;12.30;58.80
9544;DHT22;30418;51.45933468;7.33152330;2024-03-23T14:04:18;12.30;58.70
9544;DHT22;30418;51.45933468;7.33152330;2024-03-23T14:06:46;12.30;59.10
9544;DHT22;30418;51.45933468;7.33152330;2024-03-23T14:09:14;12.20;59.60
9544;DHT22;30418;51.45933468;7.33152330;2024-03-23T14:11:46;12.30;60.00
9544;DHT22;30418;51.45933468;7.33152330;2024-03-23T14:14:15;12.40;60.10
9544;DHT22;30418;51.45933468;7.33152330;2024-03-23T14:16:42;12.40;60.00
9544;DHT22;30418;51.45933468;7.33152330;2024-03-23T14:19:10;12.50;59.40
9544;DHT22;30418;51.45933468;7.33152330;2024-03-23T14:21:38;12.60;60.20
9544;DHT22;30418;51.45933468;7.33152330;2024-03-23T14:24:06;12.60;58.90
9544;DHT22;30418;51.45933468;7.33152330;2024-03-23T14:26:35;12.60;58.70
9544;DHT22;30418;51.45933468;7.33152330;2024-03-23T14:29:02;12.60;58.30
9544;DHT22;30418;51.45933468;7.33152330;2024-03-23T14:31:31;12.70;58.30
9544;DHT22;30418;51.45933468;7.33152330;2024-03-23T14:33:59;12.70;58.00